Aeroporto :
LOGIN :

Iscrizione | Disclaimer

   EN    FR    IT 

 










Sommario :    VFR   VFR Marginale   IFR   IFR Intensivo   IFR Molto Intensivo
Visibilità : 
Base nubi : 
>= 8 km
>= 3000ft
5 / 8 km
1000 / 3000 ft
1500m / 5 km
500 / 1000 ft
800 / 1500m
200 / 500 ft
< 800m
< 200 ft
Simboli :   Temporali  Nebbia  Neve Forte  Precipitazioni Forti  Vento > 20 kt
SIGMETs :   Varie  Temporali  Ghiacco  Turbolenza  Onda orograficha  Ceneri Vulcaniche







- Altitudine del aeroporto : 29 ft
- Codice IATA : SVG


ENZV - Sola

ULTIMO METAR :
  • 191350Z 26008KT 9999 FEW030 SCT070 17/11 Q1012 NOSIG

METARs OBSOLETI :
  • 191320Z 25010KT 9999 FEW030 SCT070 17/11 Q1012 BECMG 31010KT
  • 191250Z 25010KT 9999 FEW033 SCT065 17/11 Q1012 BECMG 31010KT
  • 191220Z 29009KT 9999 FEW040 SCT065 18/11 Q1012 NOSIG
  • 191150Z 28007KT 220V310 9999 FEW040 SCT065 18/11 Q1012 NOSIG
  • 191120Z 29008KT 9999 FEW040TCU SCT065 18/11 Q1012 NOSIG

AMD TAF ENZV
Valido dal 19 a 12 ore il 20 a 12 ore UTC


1912/2012 29010KT 9999 FEW030TCU SCT060
PROB30
TEMPO 1913/1917 SHRA SCT030CB
BECMG 1919/1921 VRB05KT
BECMG 2009/2011 29010KT
Nessun NOTAM noto per questo aeroporto.



MetMap, La meteo Aeronautica in un colpo d'occhio ! - Copyright ORBIFLY Dicembre 2007 - Disclaimer

ORBIFLY MET'MAP TEAM :

Programmazione e sviluppo : Alexandra Zaïnal
Concezione e sviluppo : Baudouin d'Aumeries
Co-Programmazione e sviluppo : Marc-Olivier Méhu
Supporto tecnico e logistico : Manuel Goepfert
Aiuto per la traduzione : Arnaldo La Scala

Contatto : metmap@orbifly.com




FONTI E CREDITI :

   NOAA